sensor_id;sensor_type;location;lat;lon;timestamp;temperature;humidity
24326;DHT22;12448;45.532;5.290;2023-04-01T00:00:44;11.10;81.90
24326;DHT22;12448;45.532;5.290;2023-04-01T00:03:10;10.80;81.70
24326;DHT22;12448;45.532;5.290;2023-04-01T00:05:35;11.30;81.90
24326;DHT22;12448;45.532;5.290;2023-04-01T00:08:01;11.40;81.70
24326;DHT22;12448;45.532;5.290;2023-04-01T00:10:27;11.50;81.60
24326;DHT22;12448;45.532;5.290;2023-04-01T00:12:53;11.50;81.60
24326;DHT22;12448;45.532;5.290;2023-04-01T00:15:18;11.50;81.50
24326;DHT22;12448;45.532;5.290;2023-04-01T00:17:44;11.60;81.60
24326;DHT22;12448;45.532;5.290;2023-04-01T00:20:11;11.60;81.50
24326;DHT22;12448;45.532;5.290;2023-04-01T00:22:36;11.70;81.10
24326;DHT22;12448;45.532;5.290;2023-04-01T00:25:04;11.60;81.20
24326;DHT22;12448;45.532;5.290;2023-04-01T00:27:29;11.70;81.30
24326;DHT22;12448;45.532;5.290;2023-04-01T00:29:55;12.10;81.40
24326;DHT22;12448;45.532;5.290;2023-04-01T00:32:21;11.70;81.00
24326;DHT22;12448;45.532;5.290;2023-04-01T00:34:50;11.70;81.10
24326;DHT22;12448;45.532;5.290;2023-04-01T00:37:17;11.80;81.20
24326;DHT22;12448;45.532;5.290;2023-04-01T00:39:43;11.70;81.10
24326;DHT22;12448;45.532;5.290;2023-04-01T00:42:10;11.80;81.00
24326;DHT22;12448;45.532;5.290;2023-04-01T00:44:37;11.80;80.90
24326;DHT22;12448;45.532;5.290;2023-04-01T00:47:03;12.00;80.90
24326;DHT22;12448;45.532;5.290;2023-04-01T00:49:39;11.80;80.60
24326;DHT22;12448;45.532;5.290;2023-04-01T00:52:07;11.80;80.60
24326;DHT22;12448;45.532;5.290;2023-04-01T00:54:34;11.80;80.50
24326;DHT22;12448;45.532;5.290;2023-04-01T00:57:11;11.80;80.50
24326;DHT22;12448;45.532;5.290;2023-04-01T00:59:41;11.80;80.00
24326;DHT22;12448;45.532;5.290;2023-04-01T01:02:11;11.80;79.90
24326;DHT22;12448;45.532;5.290;2023-04-01T01:04:37;11.80;79.90
24326;DHT22;12448;45.532;5.290;2023-04-01T01:07:10;11.70;79.30
24326;DHT22;12448;45.532;5.290;2023-04-01T01:15:12;11.70;79.40
24326;DHT22;12448;45.532;5.290;2023-04-01T01:20:58;11.80;79.50
24326;DHT22;12448;45.532;5.290;2023-04-01T01:37:37;11.80;78.10
24326;DHT22;12448;45.532;5.290;2023-04-01T01:40:06;11.80;78.40
24326;DHT22;12448;45.532;5.290;2023-04-01T01:42:34;11.80;78.30
24326;DHT22;12448;45.532;5.290;2023-04-01T01:45:01;11.70;77.60
24326;DHT22;12448;45.532;5.290;2023-04-01T01:47:32;11.70;77.90
24326;DHT22;12448;45.532;5.290;2023-04-01T01:49:59;11.70;78.30
24326;DHT22;12448;45.532;5.290;2023-04-01T01:52:27;11.70;78.50
24326;DHT22;12448;45.532;5.290;2023-04-01T01:54:57;11.70;78.40
24326;DHT22;12448;45.532;5.290;2023-04-01T01:57:26;11.70;78.20
24326;DHT22;12448;45.532;5.290;2023-04-01T01:59:56;11.70;78.10
24326;DHT22;12448;45.532;5.290;2023-04-01T02:02:23;11.80;78.00
24326;DHT22;12448;45.532;5.290;2023-04-01T02:04:51;11.70;77.30
24326;DHT22;12448;45.532;5.290;2023-04-01T02:07:26;11.90;77.70
24326;DHT22;12448;45.532;5.290;2023-04-01T02:09:56;11.70;78.00
24326;DHT22;12448;45.532;5.290;2023-04-01T02:12:23;11.70;78.10
24326;DHT22;12448;45.532;5.290;2023-04-01T02:14:57;11.80;78.00
24326;DHT22;12448;45.532;5.290;2023-04-01T02:17:30;11.80;77.30
24326;DHT22;12448;45.532;5.290;2023-04-01T02:20:04;11.70;77.30
24326;DHT22;12448;45.532;5.290;2023-04-01T02:22:35;11.60;77.50
24326;DHT22;12448;45.532;5.290;2023-04-01T02:25:08;11.60;77.80
24326;DHT22;12448;45.532;5.290;2023-04-01T02:27:34;11.60;78.20
24326;DHT22;12448;45.532;5.290;2023-04-01T02:30:04;11.60;78.10
24326;DHT22;12448;45.532;5.290;2023-04-01T02:32:31;11.70;77.90
24326;DHT22;12448;45.532;5.290;2023-04-01T02:34:58;11.70;77.90
24326;DHT22;12448;45.532;5.290;2023-04-01T02:37:28;11.70;77.70
24326;DHT22;12448;45.532;5.290;2023-04-01T02:39:54;11.70;77.00
24326;DHT22;12448;45.532;5.290;2023-04-01T02:42:20;11.60;76.90
24326;DHT22;12448;45.532;5.290;2023-04-01T02:44:45;11.70;77.00
24326;DHT22;12448;45.532;5.290;2023-04-01T02:47:11;11.50;77.00
24326;DHT22;12448;45.532;5.290;2023-04-01T02:49:37;11.50;77.40
24326;DHT22;12448;45.532;5.290;2023-04-01T02:52:02;11.50;77.40
24326;DHT22;12448;45.532;5.290;2023-04-01T02:54:28;11.40;76.90
24326;DHT22;12448;45.532;5.290;2023-04-01T02:56:54;11.30;76.80
24326;DHT22;12448;45.532;5.290;2023-04-01T02:59:19;11.30;77.10
24326;DHT22;12448;45.532;5.290;2023-04-01T03:01:45;11.40;77.60
24326;DHT22;12448;45.532;5.290;2023-04-01T03:04:11;11.40;77.70
24326;DHT22;12448;45.532;5.290;2023-04-01T03:06:36;11.40;78.20
24326;DHT22;12448;45.532;5.290;2023-04-01T03:09:02;11.40;77.60
24326;DHT22;12448;45.532;5.290;2023-04-01T03:11:28;11.80;77.60
24326;DHT22;12448;45.532;5.290;2023-04-01T03:13:54;11.50;76.70
24326;DHT22;12448;45.532;5.290;2023-04-01T03:16:22;11.50;76.50
24326;DHT22;12448;45.532;5.290;2023-04-01T03:18:48;11.50;76.40
24326;DHT22;12448;45.532;5.290;2023-04-01T03:21:22;11.50;76.40
24326;DHT22;12448;45.532;5.290;2023-04-01T03:23:48;11.50;76.20
24326;DHT22;12448;45.532;5.290;2023-04-01T03:26:15;11.50;76.50
24326;DHT22;12448;45.532;5.290;2023-04-01T03:28:42;11.50;76.10
24326;DHT22;12448;45.532;5.290;2023-04-01T03:31:07;11.50;76.10
24326;DHT22;12448;45.532;5.290;2023-04-01T03:33:33;11.40;75.70
24326;DHT22;12448;45.532;5.290;2023-04-01T03:35:59;11.50;75.40
24326;DHT22;12448;45.532;5.290;2023-04-01T03:38:24;11.50;75.70
24326;DHT22;12448;45.532;5.290;2023-04-01T03:40:50;11.50;75.70
24326;DHT22;12448;45.532;5.290;2023-04-01T03:43:16;11.50;75.60
24326;DHT22;12448;45.532;5.290;2023-04-01T03:45:46;11.50;75.60
24326;DHT22;12448;45.532;5.290;2023-04-01T03:48:14;11.50;75.30
24326;DHT22;12448;45.532;5.290;2023-04-01T03:50:40;11.50;75.30
24326;DHT22;12448;45.532;5.290;2023-04-01T03:53:06;11.40;75.30
24326;DHT22;12448;45.532;5.290;2023-04-01T03:55:31;11.50;75.50
24326;DHT22;12448;45.532;5.290;2023-04-01T03:57:57;11.40;75.40
24326;DHT22;12448;45.532;5.290;2023-04-01T04:00:23;11.40;75.50
24326;DHT22;12448;45.532;5.290;2023-04-01T04:02:49;11.40;75.70
24326;DHT22;12448;45.532;5.290;2023-04-01T04:05:14;11.30;75.70
24326;DHT22;12448;45.532;5.290;2023-04-01T04:07:40;11.40;75.90
24326;DHT22;12448;45.532;5.290;2023-04-01T04:10:06;11.40;75.80
24326;DHT22;12448;45.532;5.290;2023-04-01T04:12:32;11.30;75.70
24326;DHT22;12448;45.532;5.290;2023-04-01T04:14:57;11.30;75.60
24326;DHT22;12448;45.532;5.290;2023-04-01T04:17:23;11.30;75.80
24326;DHT22;12448;45.532;5.290;2023-04-01T04:19:49;11.60;76.00
24326;DHT22;12448;45.532;5.290;2023-04-01T04:22:15;11.30;75.80
24326;DHT22;12448;45.532;5.290;2023-04-01T04:24:40;11.40;75.90
24326;DHT22;12448;45.532;5.290;2023-04-01T04:27:06;11.30;75.70
24326;DHT22;12448;45.532;5.290;2023-04-01T04:29:32;11.30;75.70
24326;DHT22;12448;45.532;5.290;2023-04-01T04:31:57;11.30;75.70
24326;DHT22;12448;45.532;5.290;2023-04-01T04:34:23;11.30;76.60
24326;DHT22;12448;45.532;5.290;2023-04-01T04:36:49;11.30;76.00
24326;DHT22;12448;45.532;5.290;2023-04-01T04:39:15;11.40;76.10
24326;DHT22;12448;45.532;5.290;2023-04-01T04:41:41;11.30;75.80
24326;DHT22;12448;45.532;5.290;2023-04-01T04:44:07;11.40;75.60
24326;DHT22;12448;45.532;5.290;2023-04-01T04:46:33;11.40;75.70
24326;DHT22;12448;45.532;5.290;2023-04-01T04:48:58;11.40;75.90
24326;DHT22;12448;45.532;5.290;2023-04-01T04:51:25;11.30;76.00
24326;DHT22;12448;45.532;5.290;2023-04-01T04:53:51;11.60;76.60
24326;DHT22;12448;45.532;5.290;2023-04-01T04:56:21;11.40;76.40
24326;DHT22;12448;45.532;5.290;2023-04-01T04:58:48;11.40;76.60
24326;DHT22;12448;45.532;5.290;2023-04-01T05:01:15;11.60;76.60
24326;DHT22;12448;45.532;5.290;2023-04-01T05:03:41;11.40;76.50
24326;DHT22;12448;45.532;5.290;2023-04-01T05:06:08;11.40;76.50
24326;DHT22;12448;45.532;5.290;2023-04-01T05:08:34;11.40;76.50
24326;DHT22;12448;45.532;5.290;2023-04-01T05:11:01;11.50;76.70
24326;DHT22;12448;45.532;5.290;2023-04-01T05:13:27;11.50;76.70
24326;DHT22;12448;45.532;5.290;2023-04-01T05:15:53;11.50;77.50
24326;DHT22;12448;45.532;5.290;2023-04-01T05:18:19;11.50;76.60
24326;DHT22;12448;45.532;5.290;2023-04-01T05:20:52;11.40;76.80
24326;DHT22;12448;45.532;5.290;2023-04-01T05:23:19;11.70;76.50
24326;DHT22;12448;45.532;5.290;2023-04-01T05:25:47;11.30;76.20
24326;DHT22;12448;45.532;5.290;2023-04-01T05:28:13;11.30;77.40
24326;DHT22;12448;45.532;5.290;2023-04-01T05:30:42;11.30;77.00
24326;DHT22;12448;45.532;5.290;2023-04-01T05:33:09;11.30;76.80
24326;DHT22;12448;45.532;5.290;2023-04-01T05:35:35;11.30;76.50
24326;DHT22;12448;45.532;5.290;2023-04-01T05:38:01;11.30;76.40
24326;DHT22;12448;45.532;5.290;2023-04-01T05:40:27;11.40;76.20
24326;DHT22;12448;45.532;5.290;2023-04-01T05:42:53;11.60;76.50
24326;DHT22;12448;45.532;5.290;2023-04-01T05:45:19;11.40;76.10
24326;DHT22;12448;45.532;5.290;2023-04-01T05:47:44;11.40;76.00
24326;DHT22;12448;45.532;5.290;2023-04-01T05:50:10;11.30;76.00
24326;DHT22;12448;45.532;5.290;2023-04-01T05:52:37;11.40;76.50
24326;DHT22;12448;45.532;5.290;2023-04-01T05:55:03;11.40;76.10
24326;DHT22;12448;45.532;5.290;2023-04-01T05:57:30;11.40;76.10
24326;DHT22;12448;45.532;5.290;2023-04-01T05:59:55;11.30;75.50
24326;DHT22;12448;45.532;5.290;2023-04-01T06:02:21;11.50;75.70
24326;DHT22;12448;45.532;5.290;2023-04-01T06:04:47;11.10;75.80
24326;DHT22;12448;45.532;5.290;2023-04-01T06:07:17;11.00;76.00
24326;DHT22;12448;45.532;5.290;2023-04-01T06:09:44;11.00;75.20
24326;DHT22;12448;45.532;5.290;2023-04-01T06:23:01;11.20;75.50
24326;DHT22;12448;45.532;5.290;2023-04-01T06:28:46;11.20;75.30
24326;DHT22;12448;45.532;5.290;2023-04-01T06:31:46;11.30;75.40
24326;DHT22;12448;45.532;5.290;2023-04-01T06:50:56;11.50;75.50
24326;DHT22;12448;45.532;5.290;2023-04-01T06:56:17;11.50;76.50
24326;DHT22;12448;45.532;5.290;2023-04-01T06:58:54;11.50;76.80
24326;DHT22;12448;45.532;5.290;2023-04-01T07:01:28;11.50;76.80
24326;DHT22;12448;45.532;5.290;2023-04-01T07:04:13;11.50;76.60
24326;DHT22;12448;45.532;5.290;2023-04-01T07:09:38;11.60;76.80
24326;DHT22;12448;45.532;5.290;2023-04-01T07:12:21;11.70;76.50
24326;DHT22;12448;45.532;5.290;2023-04-01T07:14:48;11.80;76.40
24326;DHT22;12448;45.532;5.290;2023-04-01T07:17:15;11.80;76.40
24326;DHT22;12448;45.532;5.290;2023-04-01T07:19:50;11.90;76.70
24326;DHT22;12448;45.532;5.290;2023-04-01T07:22:34;11.80;78.00
24326;DHT22;12448;45.532;5.290;2023-04-01T07:25:22;11.80;78.30
24326;DHT22;12448;45.532;5.290;2023-04-01T07:27:53;11.80;78.60
24326;DHT22;12448;45.532;5.290;2023-04-01T07:30:23;11.80;79.20
24326;DHT22;12448;45.532;5.290;2023-04-01T07:33:11;11.80;80.20
24326;DHT22;12448;45.532;5.290;2023-04-01T07:36:08;11.80;80.50
24326;DHT22;12448;45.532;5.290;2023-04-01T07:38:52;11.60;80.00
24326;DHT22;12448;45.532;5.290;2023-04-01T07:41:39;11.50;80.90
24326;DHT22;12448;45.532;5.290;2023-04-01T07:50:08;11.50;82.10
24326;DHT22;12448;45.532;5.290;2023-04-01T07:53:03;11.60;82.10
24326;DHT22;12448;45.532;5.290;2023-04-01T07:55:44;11.70;81.60
24326;DHT22;12448;45.532;5.290;2023-04-01T07:58:41;11.80;81.30
24326;DHT22;12448;45.532;5.290;2023-04-01T08:01:32;11.90;81.10
24326;DHT22;12448;45.532;5.290;2023-04-01T08:10:06;12.10;80.70
24326;DHT22;12448;45.532;5.290;2023-04-01T08:18:35;12.30;79.10
24326;DHT22;12448;45.532;5.290;2023-04-01T08:21:05;12.40;79.30
24326;DHT22;12448;45.532;5.290;2023-04-01T08:23:37;12.40;79.20
24326;DHT22;12448;45.532;5.290;2023-04-01T08:26:10;12.40;79.60
24326;DHT22;12448;45.532;5.290;2023-04-01T08:33:57;12.10;78.40
24326;DHT22;12448;45.532;5.290;2023-04-01T08:36:34;12.20;78.80
24326;DHT22;12448;45.532;5.290;2023-04-01T08:39:07;12.30;80.00
24326;DHT22;12448;45.532;5.290;2023-04-01T08:49:56;12.50;78.90
24326;DHT22;12448;45.532;5.290;2023-04-01T08:52:37;12.50;78.90
24326;DHT22;12448;45.532;5.290;2023-04-01T09:01:09;12.40;78.70
24326;DHT22;12448;45.532;5.290;2023-04-01T09:04:06;12.40;78.70
24326;DHT22;12448;45.532;5.290;2023-04-01T09:15:19;12.30;77.00
24326;DHT22;12448;45.532;5.290;2023-04-01T09:17:51;12.40;77.50
24326;DHT22;12448;45.532;5.290;2023-04-01T09:25:58;12.60;76.20
24326;DHT22;12448;45.532;5.290;2023-04-01T09:34:13;12.90;77.30
24326;DHT22;12448;45.532;5.290;2023-04-01T09:36:44;13.00;75.00
24326;DHT22;12448;45.532;5.290;2023-04-01T09:44:37;13.20;76.30
24326;DHT22;12448;45.532;5.290;2023-04-01T09:50:42;13.20;77.10
24326;DHT22;12448;45.532;5.290;2023-04-01T09:53:24;13.10;77.90
24326;DHT22;12448;45.532;5.290;2023-04-01T09:56:18;12.40;79.90
24326;DHT22;12448;45.532;5.290;2023-04-01T10:25:27;11.50;89.40
24326;DHT22;12448;45.532;5.290;2023-04-01T10:28:36;11.70;89.80
24326;DHT22;12448;45.532;5.290;2023-04-01T10:31:30;11.90;89.50
24326;DHT22;12448;45.532;5.290;2023-04-01T10:36:55;12.30;89.80
24326;DHT22;12448;45.532;5.290;2023-04-01T10:42:54;12.90;89.20
24326;DHT22;12448;45.532;5.290;2023-04-01T10:45:50;13.00;88.20
24326;DHT22;12448;45.532;5.290;2023-04-01T10:59:42;13.50;86.60
24326;DHT22;12448;45.532;5.290;2023-04-01T11:16:27;13.70;83.30
24326;DHT22;12448;45.532;5.290;2023-04-01T11:19:13;13.80;83.30
24326;DHT22;12448;45.532;5.290;2023-04-01T11:38:29;14.00;80.50
24326;DHT22;12448;45.532;5.290;2023-04-01T11:41:20;14.00;79.90
24326;DHT22;12448;45.532;5.290;2023-04-01T11:44:11;14.00;79.40
24326;DHT22;12448;45.532;5.290;2023-04-01T12:15:00;14.30;79.80
24326;DHT22;12448;45.532;5.290;2023-04-01T12:20:43;14.20;79.00
24326;DHT22;12448;45.532;5.290;2023-04-01T12:23:57;14.20;79.70
24326;DHT22;12448;45.532;5.290;2023-04-01T12:35:24;14.20;79.30
24326;DHT22;12448;45.532;5.290;2023-04-01T12:41:30;14.10;78.20
24326;DHT22;12448;45.532;5.290;2023-04-01T12:44:09;14.00;77.70
24326;DHT22;12448;45.532;5.290;2023-04-01T12:46:52;14.10;78.70
24326;DHT22;12448;45.532;5.290;2023-04-01T12:49:27;14.10;78.40
24326;DHT22;12448;45.532;5.290;2023-04-01T12:52:15;14.20;78.40
24326;DHT22;12448;45.532;5.290;2023-04-01T13:12:56;14.10;77.20
24326;DHT22;12448;45.532;5.290;2023-04-01T13:18:48;14.50;75.30
24326;DHT22;12448;45.532;5.290;2023-04-01T13:21:40;14.50;74.90
24326;DHT22;12448;45.532;5.290;2023-04-01T13:24:40;14.60;75.10
24326;DHT22;12448;45.532;5.290;2023-04-01T13:27:43;14.70;74.80
24326;DHT22;12448;45.532;5.290;2023-04-01T13:44:51;14.40;74.40
24326;DHT22;12448;45.532;5.290;2023-04-01T13:53:13;14.40;75.30
24326;DHT22;12448;45.532;5.290;2023-04-01T14:01:23;14.30;74.40
24326;DHT22;12448;45.532;5.290;2023-04-01T14:15:25;14.00;76.10
24326;DHT22;12448;45.532;5.290;2023-04-01T14:20:46;13.90;77.50
24326;DHT22;12448;45.532;5.290;2023-04-01T14:34:25;13.50;79.90
24326;DHT22;12448;45.532;5.290;2023-04-01T14:37:10;13.50;80.50
24326;DHT22;12448;45.532;5.290;2023-04-01T14:45:30;13.50;81.60
24326;DHT22;12448;45.532;5.290;2023-04-01T14:48:31;13.50;81.90
24326;DHT22;12448;45.532;5.290;2023-04-01T14:51:09;13.50;80.50
24326;DHT22;12448;45.532;5.290;2023-04-01T14:53:38;13.50;80.50
24326;DHT22;12448;45.532;5.290;2023-04-01T14:56:08;13.60;80.60
24326;DHT22;12448;45.532;5.290;2023-04-01T14:58:47;13.70;80.40
24326;DHT22;12448;45.532;5.290;2023-04-01T15:01:30;13.80;79.80
24326;DHT22;12448;45.532;5.290;2023-04-01T15:04:15;13.80;79.30
24326;DHT22;12448;45.532;5.290;2023-04-01T15:09:44;13.60;78.50
24326;DHT22;12448;45.532;5.290;2023-04-01T15:12:27;13.00;76.30
24326;DHT22;12448;45.532;5.290;2023-04-01T15:18:06;10.90;83.20
24326;DHT22;12448;45.532;5.290;2023-04-01T15:23:39;10.10;90.20
24326;DHT22;12448;45.532;5.290;2023-04-01T15:40:27;10.10;91.60
24326;DHT22;12448;45.532;5.290;2023-04-01T15:57:06;9.60;92.90
24326;DHT22;12448;45.532;5.290;2023-04-01T15:59:42;9.80;93.00
24326;DHT22;12448;45.532;5.290;2023-04-01T16:02:21;10.10;93.20
24326;DHT22;12448;45.532;5.290;2023-04-01T16:05:04;10.30;93.10
24326;DHT22;12448;45.532;5.290;2023-04-01T16:18:41;10.60;92.00
24326;DHT22;12448;45.532;5.290;2023-04-01T16:21:35;10.60;91.60
24326;DHT22;12448;45.532;5.290;2023-04-01T16:26:52;10.80;91.50
24326;DHT22;12448;45.532;5.290;2023-04-01T16:35:44;11.10;91.20
24326;DHT22;12448;45.532;5.290;2023-04-01T16:41:10;11.10;90.90
24326;DHT22;12448;45.532;5.290;2023-04-01T16:43:56;11.10;90.90
24326;DHT22;12448;45.532;5.290;2023-04-01T16:46:52;11.30;90.90
24326;DHT22;12448;45.532;5.290;2023-04-01T16:49:30;11.20;90.80
24326;DHT22;12448;45.532;5.290;2023-04-01T16:52:12;11.40;90.80
24326;DHT22;12448;45.532;5.290;2023-04-01T16:54:59;11.20;90.80
24326;DHT22;12448;45.532;5.290;2023-04-01T16:57:48;11.20;90.70
24326;DHT22;12448;45.532;5.290;2023-04-01T17:00:49;11.20;90.70
24326;DHT22;12448;45.532;5.290;2023-04-01T17:04:07;11.10;90.60
24326;DHT22;12448;45.532;5.290;2023-04-01T17:09:33;11.10;90.60
24326;DHT22;12448;45.532;5.290;2023-04-01T17:14:59;11.10;91.00
24326;DHT22;12448;45.532;5.290;2023-04-01T17:17:51;10.80;90.80
24326;DHT22;12448;45.532;5.290;2023-04-01T17:23:37;11.00;91.40
24326;DHT22;12448;45.532;5.290;2023-04-01T17:35:25;10.80;91.70
24326;DHT22;12448;45.532;5.290;2023-04-01T17:38:18;10.80;91.80
24326;DHT22;12448;45.532;5.290;2023-04-01T17:43:22;10.80;91.90
24326;DHT22;12448;45.532;5.290;2023-04-01T17:45:56;11.20;91.90
24326;DHT22;12448;45.532;5.290;2023-04-01T17:53:49;10.80;91.90
24326;DHT22;12448;45.532;5.290;2023-04-01T17:59:29;10.70;92.00
24326;DHT22;12448;45.532;5.290;2023-04-01T18:05:27;10.70;91.80
24326;DHT22;12448;45.532;5.290;2023-04-01T18:13:34;10.60;91.90
24326;DHT22;12448;45.532;5.290;2023-04-01T18:16:45;10.20;91.80
24326;DHT22;12448;45.532;5.290;2023-04-01T18:22:20;10.60;91.80
24326;DHT22;12448;45.532;5.290;2023-04-01T18:27:24;10.70;91.60
24326;DHT22;12448;45.532;5.290;2023-04-01T18:30:17;10.70;91.50
24326;DHT22;12448;45.532;5.290;2023-04-01T18:32:47;10.70;91.30
24326;DHT22;12448;45.532;5.290;2023-04-01T18:35:48;10.70;91.30
24326;DHT22;12448;45.532;5.290;2023-04-01T18:38:44;10.70;91.20
24326;DHT22;12448;45.532;5.290;2023-04-01T18:46:57;10.70;91.30
24326;DHT22;12448;45.532;5.290;2023-04-01T18:57:53;11.00;91.20
24326;DHT22;12448;45.532;5.290;2023-04-01T19:01:07;10.70;91.00
24326;DHT22;12448;45.532;5.290;2023-04-01T19:05:48;10.60;91.10
24326;DHT22;12448;45.532;5.290;2023-04-01T19:19:56;10.70;91.40
24326;DHT22;12448;45.532;5.290;2023-04-01T19:30:55;10.50;91.00
24326;DHT22;12448;45.532;5.290;2023-04-01T19:34:01;10.50;91.10
24326;DHT22;12448;45.532;5.290;2023-04-01T19:36:52;10.50;91.30
24326;DHT22;12448;45.532;5.290;2023-04-01T19:42:30;10.60;91.60
24326;DHT22;12448;45.532;5.290;2023-04-01T19:53:25;10.50;91.70
24326;DHT22;12448;45.532;5.290;2023-04-01T19:56:20;10.50;91.70
24326;DHT22;12448;45.532;5.290;2023-04-01T19:58:55;10.60;91.80
24326;DHT22;12448;45.532;5.290;2023-04-01T20:01:37;10.60;91.70
24326;DHT22;12448;45.532;5.290;2023-04-01T20:04:17;10.60;91.80
24326;DHT22;12448;45.532;5.290;2023-04-01T20:10:12;10.50;91.50
24326;DHT22;12448;45.532;5.290;2023-04-01T20:12:42;10.10;91.80
24326;DHT22;12448;45.532;5.290;2023-04-01T20:15:27;9.70;92.30
24326;DHT22;12448;45.532;5.290;2023-04-01T20:17:59;9.40;93.20
24326;DHT22;12448;45.532;5.290;2023-04-01T20:20:28;9.20;93.70
24326;DHT22;12448;45.532;5.290;2023-04-01T20:23:25;9.10;94.40
24326;DHT22;12448;45.532;5.290;2023-04-01T20:25:57;9.10;94.70
24326;DHT22;12448;45.532;5.290;2023-04-01T20:28:44;9.20;94.70
24326;DHT22;12448;45.532;5.290;2023-04-01T20:35:17;9.50;94.90
24326;DHT22;12448;45.532;5.290;2023-04-01T20:40:46;9.70;94.80
24326;DHT22;12448;45.532;5.290;2023-04-01T20:46:27;9.60;94.80
24326;DHT22;12448;45.532;5.290;2023-04-01T20:51:46;10.30;94.90
24326;DHT22;12448;45.532;5.290;2023-04-01T20:59:52;9.90;94.50
24326;DHT22;12448;45.532;5.290;2023-04-01T21:02:59;10.00;94.50
24326;DHT22;12448;45.532;5.290;2023-04-01T21:08:24;10.10;94.30
24326;DHT22;12448;45.532;5.290;2023-04-01T21:11:09;10.10;94.30
24326;DHT22;12448;45.532;5.290;2023-04-01T21:13:39;10.20;94.30
24326;DHT22;12448;45.532;5.290;2023-04-01T21:50:04;10.40;94.00
24326;DHT22;12448;45.532;5.290;2023-04-01T21:52:56;10.40;94.00
24326;DHT22;12448;45.532;5.290;2023-04-01T22:07:08;10.30;93.80
24326;DHT22;12448;45.532;5.290;2023-04-01T22:09:39;10.30;93.70
24326;DHT22;12448;45.532;5.290;2023-04-01T22:12:26;10.60;94.00
24326;DHT22;12448;45.532;5.290;2023-04-01T22:18:17;10.30;93.90
24326;DHT22;12448;45.532;5.290;2023-04-01T22:21:05;10.30;94.00
24326;DHT22;12448;45.532;5.290;2023-04-01T22:23:54;10.30;94.00
24326;DHT22;12448;45.532;5.290;2023-04-01T22:26:28;10.30;93.90
24326;DHT22;12448;45.532;5.290;2023-04-01T22:32:27;10.20;93.80
24326;DHT22;12448;45.532;5.290;2023-04-01T22:41:01;10.10;93.90
24326;DHT22;12448;45.532;5.290;2023-04-01T22:46:16;9.90;94.00
24326;DHT22;12448;45.532;5.290;2023-04-01T22:49:08;9.90;94.10
24326;DHT22;12448;45.532;5.290;2023-04-01T22:52:03;9.80;94.00
24326;DHT22;12448;45.532;5.290;2023-04-01T22:54:38;9.60;94.20
24326;DHT22;12448;45.532;5.290;2023-04-01T22:57:14;9.50;94.50
24326;DHT22;12448;45.532;5.290;2023-04-01T23:00:00;9.60;94.80
24326;DHT22;12448;45.532;5.290;2023-04-01T23:03:14;9.40;95.00
24326;DHT22;12448;45.532;5.290;2023-04-01T23:05:54;9.50;95.10
24326;DHT22;12448;45.532;5.290;2023-04-01T23:11:37;9.60;94.90
24326;DHT22;12448;45.532;5.290;2023-04-01T23:16:50;9.40;94.90
24326;DHT22;12448;45.532;5.290;2023-04-01T23:19:32;9.30;95.00
24326;DHT22;12448;45.532;5.290;2023-04-01T23:22:17;9.40;95.20
24326;DHT22;12448;45.532;5.290;2023-04-01T23:24:54;9.40;95.30
24326;DHT22;12448;45.532;5.290;2023-04-01T23:27:26;9.50;95.30
24326;DHT22;12448;45.532;5.290;2023-04-01T23:29:54;9.60;95.20
24326;DHT22;12448;45.532;5.290;2023-04-01T23:32:23;9.60;95.10
24326;DHT22;12448;45.532;5.290;2023-04-01T23:34:53;9.60;95.00
24326;DHT22;12448;45.532;5.290;2023-04-01T23:37:21;9.70;95.00
24326;DHT22;12448;45.532;5.290;2023-04-01T23:39:52;9.70;94.80
24326;DHT22;12448;45.532;5.290;2023-04-01T23:42:28;9.70;94.90
24326;DHT22;12448;45.532;5.290;2023-04-01T23:45:05;9.80;94.90
24326;DHT22;12448;45.532;5.290;2023-04-01T23:47:39;9.80;94.90
24326;DHT22;12448;45.532;5.290;2023-04-01T23:50:16;10.00;95.00
24326;DHT22;12448;45.532;5.290;2023-04-01T23:52:48;9.80;94.90
24326;DHT22;12448;45.532;5.290;2023-04-01T23:55:33;9.90;94.80
